Time;durP1;ratioP1;P1;durP2;ratioP2;P2;SDS_P1;SDS_P2;PMS_P1;PMS_P2;Temp;Humidity;BMP_temperature;BMP_pressure;BME280_temperature;BME280_humidity;BME280_pressure;Samples;Min_cycle;Max_cycle;Signal;HPM_P1;HPM_P2
2022/12/14 00:01:37;;;;;;;0.63;0.63;;;-3.60;99.90;;;;;;5107996;28;20945;-73
2022/12/14 00:04:04;;;;;;;1.27;0.98;;;-3.60;99.90;;;;;;5105352;28;20426;-73
2022/12/14 00:06:32;;;;;;;1.60;1.10;;;-3.60;99.90;;;;;;5118553;28;20532;-73
2022/12/14 00:09:01;;;;;;;1.85;1.05;;;-3.50;99.90;;;;;;5109495;28;20503;-73
2022/12/14 00:11:27;;;;;;;1.40;1.00;;;-3.60;99.90;;;;;;5112092;28;20443;-73
2022/12/14 00:14:03;;;;;;;0.65;0.65;;;-3.60;99.90;;;;;;5114551;28;20423;-73
2022/12/14 00:16:32;;;;;;;2.80;1.50;;;-3.50;99.90;;;;;;5099999;28;20501;-73
2022/12/14 00:19:00;;;;;;;5.75;1.25;;;-3.50;99.90;;;;;;5114097;28;20489;-73
2022/12/14 00:21:27;;;;;;;2.92;1.80;;;-3.50;99.90;;;;;;5102167;28;20440;-73
2022/12/14 00:23:56;;;;;;;5.10;1.80;;;-3.50;99.90;;;;;;5090205;28;20474;-73
2022/12/14 00:26:25;;;;;;;4.80;1.93;;;-3.50;99.90;;;;;;5089099;28;20433;-72
2022/12/14 00:28:53;;;;;;;6.80;1.92;;;-3.50;99.90;;;;;;5110174;28;20429;-72
2022/12/14 00:31:22;;;;;;;3.63;2.40;;;-3.50;99.90;;;;;;5114137;28;20491;-72
2022/12/14 00:33:49;;;;;;;7.75;2.25;;;-3.50;99.90;;;;;;5099272;28;20431;-72
2022/12/14 00:36:19;;;;;;;2.40;1.05;;;-3.50;99.90;;;;;;5119472;28;20422;-73
2022/12/14 00:38:46;;;;;;;1.05;0.93;;;-3.50;99.90;;;;;;5104201;28;20900;-72
2022/12/14 00:41:19;;;;;;;2.33;1.38;;;-3.50;99.90;;;;;;5096539;28;20824;-72
2022/12/14 00:43:45;;;;;;;0.75;0.75;;;-3.50;99.90;;;;;;5117344;28;20420;-72
2022/12/14 00:46:15;;;;;;;0.50;0.50;;;-3.50;99.90;;;;;;5118533;28;20505;-72
2022/12/14 00:48:43;;;;;;;0.65;0.65;;;-3.50;99.90;;;;;;5115192;28;20430;-73
2022/12/14 00:51:13;;;;;;;0.90;0.55;;;-3.50;99.90;;;;;;5120005;27;20436;-74
2022/12/14 00:53:42;;;;;;;0.77;0.77;;;-3.50;99.90;;;;;;5098336;27;20451;-73
2022/12/14 00:56:11;;;;;;;0.75;0.63;;;-3.50;99.90;;;;;;5124293;27;20887;-73
2022/12/14 00:59:04;;;;;;;1.15;0.93;;;-3.50;99.90;;;;;;5127620;27;20518;-73
2022/12/14 01:01:31;;;;;;;1.15;1.05;;;-3.50;99.90;;;;;;5116402;27;20477;-73
2022/12/14 01:04:15;;;;;;;1.90;1.38;;;-3.60;99.90;;;;;;5095649;28;20919;-73
2022/12/14 01:06:50;;;;;;;1.05;1.00;;;-3.60;99.90;;;;;;5099750;27;20425;-73
2022/12/14 01:09:19;;;;;;;0.90;0.90;;;-3.50;99.90;;;;;;5107878;27;20436;-73
2022/12/14 01:11:46;;;;;;;0.80;0.77;;;-3.60;99.90;;;;;;5100627;28;20424;-73
2022/12/14 01:14:18;;;;;;;2.50;0.90;;;-3.50;99.90;;;;;;5127362;27;20454;-73
2022/12/14 01:16:45;;;;;;;1.70;0.60;;;-3.50;99.90;;;;;;5097964;27;20421;-72
2022/12/14 01:19:13;;;;;;;3.70;1.40;;;-3.50;99.90;;;;;;5112102;27;20416;-73
2022/12/14 01:21:40;;;;;;;2.65;0.82;;;-3.50;99.90;;;;;;5110528;27;20452;-73
2022/12/14 01:24:10;;;;;;;1.60;0.70;;;-3.50;99.90;;;;;;5118898;27;20424;-73
2022/12/14 01:26:39;;;;;;;1.10;0.77;;;-3.50;99.90;;;;;;5108966;27;20424;-73
2022/12/14 01:29:06;;;;;;;2.55;1.27;;;-3.50;99.90;;;;;;5125585;27;20480;-73
2022/12/14 01:31:35;;;;;;;2.10;0.80;;;-3.50;99.90;;;;;;5115666;27;20449;-72
2022/12/14 01:34:02;;;;;;;0.70;0.70;;;-3.60;99.90;;;;;;5131878;27;20430;-73
2022/12/14 01:36:33;;;;;;;2.20;0.75;;;-3.60;99.90;;;;;;5121382;27;20431;-75
2022/12/14 01:39:12;;;;;;;0.90;0.90;;;-3.60;99.90;;;;;;5127660;27;20426;-75
2022/12/14 01:41:51;;;;;;;0.37;0.37;;;-3.50;99.90;;;;;;5099075;27;20660;-74
2022/12/14 01:44:17;;;;;;;0.65;0.65;;;-3.50;99.90;;;;;;5098659;27;20450;-73
2022/12/14 01:46:52;;;;;;;3.22;1.75;;;-3.50;99.90;;;;;;5106271;28;20782;-73
2022/12/14 01:49:38;;;;;;;0.80;0.80;;;-3.50;99.90;;;;;;5117997;27;20454;-73
2022/12/14 01:52:20;;;;;;;1.00;0.90;;;-3.50;99.90;;;;;;5124048;27;20426;-73
2022/12/14 01:54:58;;;;;;;0.70;0.60;;;-3.50;99.90;;;;;;5117315;27;20425;-73
2022/12/14 01:57:43;;;;;;;0.47;0.38;;;-3.40;99.90;;;;;;5093007;27;20425;-73
2022/12/14 02:00:12;;;;;;;1.43;1.33;;;-3.40;99.90;;;;;;5129858;27;20424;-73
2022/12/14 02:02:49;;;;;;;0.70;0.70;;;-3.40;99.90;;;;;;5104478;27;20426;-73
2022/12/14 02:05:19;;;;;;;0.43;0.43;;;-3.40;99.90;;;;;;5097339;27;20457;-73
2022/12/14 02:07:48;;;;;;;3.45;0.77;;;-3.40;99.90;;;;;;5118190;27;20930;-73
2022/12/14 02:10:17;;;;;;;0.55;0.55;;;-3.40;99.90;;;;;;5111903;28;20477;-73
2022/12/14 02:13:09;;;;;;;2.30;1.40;;;-3.40;99.90;;;;;;5121907;27;20755;-73
2022/12/14 02:15:37;;;;;;;1.35;0.60;;;-3.40;99.90;;;;;;5126526;27;20426;-73
2022/12/14 02:18:07;;;;;;;0.43;0.43;;;-3.30;99.90;;;;;;5120898;27;20432;-73
2022/12/14 02:20:57;;;;;;;0.73;0.27;;;-3.30;99.90;;;;;;5132844;27;20498;-73
2022/12/14 02:23:51;;;;;;;1.65;1.33;;;-3.30;99.90;;;;;;5127106;27;20424;-73
2022/12/14 02:26:48;;;;;;;1.30;0.90;;;-3.30;99.90;;;;;;5113460;27;20465;-73
2022/12/14 02:29:40;;;;;;;2.45;2.08;;;-3.30;99.90;;;;;;5116587;27;20931;-73
2022/12/14 02:32:37;;;;;;;0.52;0.52;;;-3.20;99.90;;;;;;5117066;27;20910;-73
2022/12/14 02:35:29;;;;;;;0.40;0.40;;;-3.20;99.90;;;;;;5119224;27;20953;-73
2022/12/14 02:38:38;;;;;;;0.40;0.40;;;-3.20;99.90;;;;;;5114410;27;20430;-73
2022/12/14 02:41:39;;;;;;;1.30;0.90;;;-3.20;99.90;;;;;;5108071;27;20483;-73
2022/12/14 02:44:30;;;;;;;1.05;0.88;;;-3.30;99.90;;;;;;5127011;27;20418;-73
2022/12/14 02:47:07;;;;;;;0.47;0.47;;;-3.30;99.90;;;;;;5107983;27;20423;-73
2022/12/14 02:49:58;;;;;;;0.68;0.63;;;-3.20;99.90;;;;;;5098210;27;20424;-73
2022/12/14 02:52:43;;;;;;;1.50;0.90;;;-3.20;99.90;;;;;;5106120;27;20424;-73
2022/12/14 02:55:34;;;;;;;0.57;0.57;;;-3.20;99.90;;;;;;5118703;27;20420;-73
2022/12/14 02:58:05;;;;;;;1.90;0.50;;;-3.20;99.90;;;;;;5105313;27;20475;-74
2022/12/14 03:00:35;;;;;;;1.92;0.90;;;-3.20;99.90;;;;;;5122830;27;20837;-74
2022/12/14 03:03:06;;;;;;;0.85;0.70;;;-3.20;99.90;;;;;;5107882;27;20504;-73
2022/12/14 03:05:33;;;;;;;1.17;0.88;;;-3.20;99.90;;;;;;5126791;27;20425;-73
2022/12/14 03:08:08;;;;;;;0.63;0.63;;;-3.10;99.90;;;;;;5122971;27;20426;-73
2022/12/14 03:10:44;;;;;;;5.70;1.30;;;-3.10;99.90;;;;;;5101892;27;20777;-73
2022/12/14 03:13:27;;;;;;;2.08;0.60;;;-3.10;99.90;;;;;;5122672;27;20426;-73
2022/12/14 03:16:01;;;;;;;0.60;0.60;;;-3.10;99.90;;;;;;5097786;28;20445;-73
2022/12/14 03:18:35;;;;;;;2.40;0.70;;;-3.10;99.90;;;;;;5126804;27;20465;-73
2022/12/14 03:21:09;;;;;;;3.45;1.23;;;-3.10;99.90;;;;;;5102872;27;20422;-73
2022/12/14 03:23:39;;;;;;;0.50;0.50;;;-3.10;99.90;;;;;;5128027;27;20483;-73
2022/12/14 03:26:22;;;;;;;1.35;1.25;;;-3.10;99.90;;;;;;5120179;27;20435;-73
2022/12/14 03:28:54;;;;;;;1.08;0.98;;;-3.10;99.90;;;;;;5119816;27;20423;-73
2022/12/14 03:31:29;;;;;;;0.70;0.70;;;-3.10;99.90;;;;;;5104410;27;20510;-74
2022/12/14 03:34:02;;;;;;;0.73;0.73;;;-3.10;99.90;;;;;;5108839;28;20451;-73
2022/12/14 03:36:41;;;;;;;1.20;0.50;;;-3.20;99.90;;;;;;5109098;28;20453;-73
2022/12/14 03:39:11;;;;;;;1.70;0.70;;;-3.20;99.90;;;;;;5114376;27;20439;-73
2022/12/14 03:41:50;;;;;;;0.80;0.80;;;-3.30;99.90;;;;;;5108707;28;20426;-73
2022/12/14 03:44:44;;;;;;;0.60;0.60;;;-3.30;99.90;;;;;;5125194;27;20422;-73
2022/12/14 03:47:36;;;;;;;1.20;1.00;;;-3.40;99.90;;;;;;5104760;27;20427;-73
2022/12/14 03:50:16;;;;;;;1.70;1.40;;;-3.40;99.90;;;;;;5129450;27;20912;-73
2022/12/14 03:52:46;;;;;;;0.70;0.70;;;-3.50;99.90;;;;;;5107604;27;20994;-73
2022/12/14 03:55:28;;;;;;;0.90;0.90;;;-3.50;99.90;;;;;;5123466;27;20426;-73
2022/12/14 03:58:04;;;;;;;1.13;1.13;;;-3.50;99.90;;;;;;5113017;27;20808;-73
2022/12/14 04:00:50;;;;;;;0.50;0.50;;;-3.40;99.90;;;;;;5098060;28;20468;-73
2022/12/14 04:03:23;;;;;;;1.00;0.82;;;-3.40;99.90;;;;;;5109681;28;20423;-73
2022/12/14 04:06:17;;;;;;;0.50;0.50;;;-3.30;99.90;;;;;;5110797;28;20425;-73
2022/12/14 04:09:02;;;;;;;1.17;0.97;;;-3.30;99.90;;;;;;5093187;28;21043;-73
2022/12/14 04:20:32;;;;;;;0.93;0.80;;;-3.30;99.90;;;;;;5109126;28;20463;-73
2022/12/14 04:23:11;;;;;;;0.63;0.63;;;-3.30;99.90;;;;;;5062199;28;20993;-73
2022/12/14 04:26:03;;;;;;;0.50;0.50;;;-3.20;99.90;;;;;;5109088;27;20463;-73
2022/12/14 04:31:52;;;;;;;0.57;0.57;;;-3.20;99.90;;;;;;5112644;27;20425;-73
2022/12/14 04:34:22;;;;;;;0.70;0.70;;;-3.20;99.90;;;;;;5125466;27;20942;-73
2022/12/14 04:36:55;;;;;;;0.67;0.67;;;-3.20;99.90;;;;;;5133032;27;20461;-73
2022/12/14 04:39:32;;;;;;;2.47;1.27;;;-3.20;99.90;;;;;;5102750;27;20456;-73
2022/12/14 04:42:01;;;;;;;1.00;0.80;;;-3.20;99.90;;;;;;5088981;28;20424;-73
2022/12/14 04:44:33;;;;;;;1.85;1.33;;;-3.20;99.90;;;;;;5092869;28;20434;-73
2022/12/14 04:47:01;;;;;;;1.10;0.63;;;-3.10;99.90;;;;;;5091450;27;20435;-73
2022/12/14 04:49:37;;;;;;;1.60;0.90;;;-3.10;99.90;;;;;;5122100;27;20455;-73
2022/12/14 04:52:13;;;;;;;2.10;1.17;;;-3.10;99.90;;;;;;5121424;27;20476;-73
2022/12/14 04:55:15;;;;;;;1.40;1.30;;;-3.10;99.90;;;;;;5116640;27;20426;-73
2022/12/14 04:57:48;;;;;;;0.75;0.75;;;-3.10;99.90;;;;;;5110805;28;20424;-73
2022/12/14 05:00:16;;;;;;;1.15;1.05;;;-3.10;99.90;;;;;;5114166;27;20424;-74
2022/12/14 05:02:51;;;;;;;0.73;0.73;;;-3.10;99.90;;;;;;5104305;28;20523;-73
2022/12/14 05:06:01;;;;;;;1.63;1.27;;;-3.10;99.90;;;;;;5111436;28;20905;-73
2022/12/14 05:08:55;;;;;;;1.60;1.00;;;-3.10;99.90;;;;;;5092794;28;20436;-73
2022/12/14 05:11:51;;;;;;;1.63;0.98;;;-3.10;99.90;;;;;;5090764;28;20844;-74
2022/12/14 05:14:32;;;;;;;1.60;0.80;;;-3.10;99.90;;;;;;5110725;27;20423;-73
2022/12/14 05:17:03;;;;;;;1.40;1.33;;;-3.10;99.90;;;;;;5110531;27;20440;-73
2022/12/14 05:19:43;;;;;;;0.93;0.93;;;-3.10;99.90;;;;;;5111828;28;20498;-73
2022/12/14 05:22:16;;;;;;;0.90;0.90;;;-3.10;99.90;;;;;;5112184;28;20428;-73
2022/12/14 05:24:42;;;;;;;1.53;0.80;;;-3.10;99.90;;;;;;5083154;28;20471;-73
2022/12/14 05:27:09;;;;;;;1.80;0.93;;;-3.00;99.90;;;;;;5111780;27;20435;-73
2022/12/14 05:29:36;;;;;;;1.23;1.13;;;-3.00;99.90;;;;;;5120793;27;20822;-73
2022/12/14 05:32:03;;;;;;;1.60;0.82;;;-3.00;99.90;;;;;;5114145;27;20439;-73
2022/12/14 05:34:30;;;;;;;1.20;0.90;;;-3.00;99.90;;;;;;5133130;27;20423;-73
2022/12/14 05:36:57;;;;;;;0.95;0.73;;;-3.00;99.90;;;;;;5120214;27;20429;-74
2022/12/14 05:39:24;;;;;;;0.85;0.82;;;-3.10;99.90;;;;;;5109163;27;20456;-74
2022/12/14 05:41:52;;;;;;;0.90;0.87;;;-3.00;99.90;;;;;;5115646;27;20492;-74
2022/12/14 05:44:20;;;;;;;1.95;1.45;;;-3.00;99.90;;;;;;5107320;27;20488;-74
2022/12/14 05:46:47;;;;;;;2.00;0.75;;;-3.00;99.90;;;;;;5075406;28;20430;-73
2022/12/14 05:49:14;;;;;;;1.63;1.30;;;-3.00;99.90;;;;;;5098779;27;20430;-74
2022/12/14 05:51:41;;;;;;;2.10;1.58;;;-3.00;99.90;;;;;;5128427;27;20431;-74
2022/12/14 05:54:08;;;;;;;0.88;0.88;;;-3.00;99.90;;;;;;5096698;28;20433;-74
2022/12/14 05:56:35;;;;;;;2.00;1.30;;;-3.00;99.90;;;;;;5107112;27;20455;-74
2022/12/14 05:59:01;;;;;;;0.63;0.63;;;-3.00;99.90;;;;;;5113224;27;20431;-74
2022/12/14 06:01:28;;;;;;;1.00;0.90;;;-3.00;99.90;;;;;;5091771;28;20928;-73
2022/12/14 06:03:55;;;;;;;0.80;0.50;;;-3.00;99.90;;;;;;5110567;27;20482;-74
2022/12/14 06:06:22;;;;;;;1.97;0.97;;;-2.90;99.90;;;;;;5091697;28;20911;-74
2022/12/14 06:08:49;;;;;;;1.42;1.02;;;-2.90;99.90;;;;;;5103071;27;20441;-74
2022/12/14 06:11:21;;;;;;;2.95;1.05;;;-2.90;99.90;;;;;;5120526;27;20487;-74
2022/12/14 06:13:48;;;;;;;0.63;0.63;;;-2.90;99.90;;;;;;5104122;27;20493;-74
2022/12/14 06:16:18;;;;;;;1.17;1.10;;;-2.90;99.90;;;;;;5112542;28;20423;-74
2022/12/14 06:18:51;;;;;;;1.52;1.42;;;-2.90;99.90;;;;;;5102948;28;20441;-74
2022/12/14 06:21:22;;;;;;;1.20;1.20;;;-2.80;99.90;;;;;;5104057;28;21186;-75
2022/12/14 06:23:49;;;;;;;7.00;2.15;;;-2.80;99.90;;;;;;5102308;28;20450;-74
2022/12/14 06:26:17;;;;;;;1.83;1.73;;;-2.80;99.90;;;;;;5099281;28;20426;-73
2022/12/14 06:28:44;;;;;;;2.35;1.40;;;-2.80;99.90;;;;;;5110592;27;20433;-74
2022/12/14 06:31:25;;;;;;;2.93;1.47;;;-2.80;99.90;;;;;;5108544;27;20461;-74
2022/12/14 06:33:53;;;;;;;1.83;1.67;;;-2.80;99.90;;;;;;5118729;27;20430;-74
2022/12/14 06:36:32;;;;;;;1.42;1.42;;;-2.70;99.90;;;;;;5110869;27;20427;-73
2022/12/14 06:39:04;;;;;;;1.67;1.33;;;-2.70;99.90;;;;;;5102128;27;21749;-74
2022/12/14 06:41:31;;;;;;;1.30;1.23;;;-2.80;99.90;;;;;;5095259;27;20487;-73
2022/12/14 06:44:10;;;;;;;1.92;0.85;;;-2.80;99.90;;;;;;5103035;28;20420;-74
2022/12/14 06:46:36;;;;;;;1.27;1.17;;;-2.70;99.90;;;;;;5107863;27;20424;-73
2022/12/14 06:49:05;;;;;;;1.23;1.05;;;-2.70;99.90;;;;;;5104762;27;20433;-73
2022/12/14 06:51:37;;;;;;;1.25;1.15;;;-2.70;99.90;;;;;;5099655;27;20849;-73
2022/12/14 06:54:03;;;;;;;12.30;1.50;;;-2.70;99.90;;;;;;5097369;27;20463;-73
2022/12/14 06:56:30;;;;;;;2.47;1.43;;;-2.70;99.90;;;;;;5100809;27;20925;-73
2022/12/14 06:58:58;;;;;;;0.77;0.77;;;-2.70;99.90;;;;;;5099527;27;20508;-71
2022/12/14 07:01:25;;;;;;;1.53;1.47;;;-2.70;99.90;;;;;;5095593;28;21077;-72
2022/12/14 07:03:56;;;;;;;1.85;1.75;;;-2.70;99.90;;;;;;5103919;27;20477;-72
2022/12/14 07:06:26;;;;;;;0.70;0.65;;;-2.70;99.90;;;;;;5105193;28;20445;-72
2022/12/14 07:08:56;;;;;;;1.23;1.13;;;-2.70;99.90;;;;;;5106024;27;20506;-72
2022/12/14 07:11:27;;;;;;;1.65;1.30;;;-2.70;99.90;;;;;;5086315;27;20546;-74
2022/12/14 07:13:54;;;;;;;1.95;1.23;;;-2.70;99.90;;;;;;5120336;27;20431;-73
2022/12/14 07:16:24;;;;;;;1.45;1.35;;;-2.70;99.90;;;;;;5093557;28;20436;-73
2022/12/14 07:18:54;;;;;;;1.55;1.45;;;-2.60;99.90;;;;;;5076827;28;20468;-73
2022/12/14 07:21:21;;;;;;;0.93;0.93;;;-2.60;99.90;;;;;;5088176;28;20420;-73
2022/12/14 07:23:51;;;;;;;1.35;1.08;;;-2.60;99.90;;;;;;5102964;27;21356;-73
2022/12/14 07:26:24;;;;;;;1.33;1.00;;;-2.60;99.90;;;;;;5106601;28;20435;-73
2022/12/14 07:28:51;;;;;;;1.38;1.38;;;-2.60;99.90;;;;;;5096885;27;20433;-73
2022/12/14 07:31:22;;;;;;;1.98;1.88;;;-2.60;99.90;;;;;;5109119;27;20432;-73
2022/12/14 07:33:52;;;;;;;5.13;2.22;;;-2.60;99.90;;;;;;5105853;28;20436;-73
2022/12/14 07:36:20;;;;;;;1.33;1.23;;;-2.60;99.90;;;;;;5101135;28;20463;-72
2022/12/14 07:38:49;;;;;;;2.20;1.00;;;-2.60;99.90;;;;;;5102422;28;20813;-73
2022/12/14 07:41:29;;;;;;;5.25;1.48;;;-2.50;99.90;;;;;;5118474;27;20432;-73
2022/12/14 07:43:58;;;;;;;3.40;2.92;;;-2.50;99.90;;;;;;5095432;28;20462;-73
2022/12/14 07:46:27;;;;;;;3.33;1.65;;;-2.50;99.90;;;;;;5101140;27;21387;-73
2022/12/14 07:48:56;;;;;;;2.17;1.25;;;-2.50;99.90;;;;;;5081752;28;20871;-73
2022/12/14 07:51:27;;;;;;;1.07;1.07;;;-2.50;99.90;;;;;;5094141;28;20530;-74
2022/12/14 07:53:54;;;;;;;1.47;0.93;;;-2.50;99.90;;;;;;5094456;28;20434;-74
2022/12/14 07:56:24;;;;;;;2.00;1.17;;;-2.50;99.90;;;;;;5092625;28;20466;-73
2022/12/14 07:58:52;;;;;;;1.48;1.17;;;-2.50;99.90;;;;;;5110347;27;20424;-73
2022/12/14 08:01:28;;;;;;;2.10;1.60;;;-2.50;99.90;;;;;;5089079;28;21116;-73
2022/12/14 08:03:56;;;;;;;2.20;1.63;;;-2.50;99.90;;;;;;5097675;28;20430;-73
2022/12/14 08:06:25;;;;;;;1.65;1.50;;;-2.50;99.90;;;;;;5091502;28;20416;-73
2022/12/14 08:08:53;;;;;;;1.30;1.20;;;-2.40;99.90;;;;;;5109695;28;20788;-74
2022/12/14 08:11:24;;;;;;;1.80;1.70;;;-2.40;99.90;;;;;;5095491;28;20451;-73
2022/12/14 08:13:59;;;;;;;2.08;1.75;;;-2.40;99.90;;;;;;5102951;28;20930;-74
2022/12/14 08:16:26;;;;;;;1.08;1.08;;;-2.40;99.90;;;;;;5102972;28;20440;-74
2022/12/14 08:18:55;;;;;;;1.30;0.80;;;-2.40;99.90;;;;;;5109260;28;20941;-73
2022/12/14 08:21:26;;;;;;;1.25;1.15;;;-2.40;99.90;;;;;;5108244;28;20422;-72
2022/12/14 08:23:54;;;;;;;1.23;1.13;;;-2.40;99.90;;;;;;5103788;28;20424;-74
2022/12/14 08:26:22;;;;;;;1.50;1.40;;;-2.40;99.90;;;;;;5114087;28;20433;-73
2022/12/14 08:28:50;;;;;;;0.93;0.82;;;-2.30;99.90;;;;;;5104327;28;20435;-73
2022/12/14 08:31:19;;;;;;;1.23;1.08;;;-2.30;99.90;;;;;;5111226;28;20511;-73
2022/12/14 08:33:47;;;;;;;5.65;1.50;;;-2.20;99.90;;;;;;5111870;28;20477;-72
2022/12/14 08:36:19;;;;;;;5.40;2.50;;;-2.20;99.90;;;;;;5112173;28;20432;-71
2022/12/14 08:38:52;;;;;;;1.58;1.08;;;-2.10;99.90;;;;;;5111261;28;20435;-72
2022/12/14 08:41:19;;;;;;;5.75;1.83;;;-1.90;99.90;;;;;;5097028;28;20428;-73
2022/12/14 08:43:49;;;;;;;12.82;5.68;;;-1.90;99.90;;;;;;5105883;28;20433;-73
2022/12/14 08:46:16;;;;;;;3.42;3.00;;;-2.00;99.90;;;;;;5097999;28;20459;-73
2022/12/14 08:48:43;;;;;;;8.10;4.38;;;-2.00;99.90;;;;;;5093942;28;20431;-73
2022/12/14 08:51:11;;;;;;;10.70;5.35;;;-2.00;99.90;;;;;;5099865;28;20437;-72
2022/12/14 08:53:39;;;;;;;7.32;2.75;;;-2.00;99.90;;;;;;5107462;28;20434;-72
2022/12/14 08:56:09;;;;;;;12.65;3.28;;;-2.10;99.90;;;;;;5097046;28;20429;-73
2022/12/14 08:58:37;;;;;;;6.00;1.70;;;-2.10;99.90;;;;;;5116827;28;20940;-72
2022/12/14 09:01:14;;;;;;;0.95;0.95;;;-2.10;99.90;;;;;;5095268;28;20518;-72
2022/12/14 09:03:46;;;;;;;1.90;1.27;;;-2.20;99.90;;;;;;5121214;28;20799;-73
2022/12/14 09:06:17;;;;;;;0.90;0.90;;;-2.20;99.90;;;;;;5102415;28;20420;-72
2022/12/14 09:08:45;;;;;;;2.25;1.17;;;-2.30;99.90;;;;;;5101085;28;20513;-72
2022/12/14 09:11:18;;;;;;;2.22;1.25;;;-2.20;99.90;;;;;;5084124;28;20549;-72
2022/12/14 09:13:46;;;;;;;1.70;1.15;;;-2.30;99.90;;;;;;5108762;27;20426;-73
2022/12/14 09:16:16;;;;;;;2.80;2.08;;;-2.30;99.90;;;;;;5097450;28;20424;-73
2022/12/14 09:18:44;;;;;;;1.70;1.38;;;-2.30;99.90;;;;;;5098252;28;20444;-72
2022/12/14 09:21:11;;;;;;;1.33;1.23;;;-2.30;99.90;;;;;;5098749;28;20427;-72
2022/12/14 09:23:38;;;;;;;2.13;1.65;;;-2.20;99.90;;;;;;5113438;27;20447;-72
2022/12/14 09:26:11;;;;;;;1.33;1.25;;;-2.00;99.90;;;;;;5121782;27;20428;-72
2022/12/14 09:28:40;;;;;;;2.20;1.00;;;-1.90;99.90;;;;;;5112730;27;20509;-72
2022/12/14 09:31:10;;;;;;;0.80;0.80;;;-1.90;99.90;;;;;;5111105;27;20915;-72
2022/12/14 09:33:38;;;;;;;1.30;1.25;;;-1.90;99.90;;;;;;5109897;27;20439;-73
2022/12/14 09:36:11;;;;;;;0.93;0.93;;;-1.90;99.90;;;;;;5124294;27;20414;-72
2022/12/14 09:38:39;;;;;;;2.20;1.35;;;-1.80;99.90;;;;;;5122568;27;20815;-72
2022/12/14 09:41:25;;;;;;;0.88;0.82;;;-1.70;99.90;;;;;;5108698;28;21222;-72
2022/12/14 09:44:09;;;;;;;1.23;1.15;;;-1.70;99.90;;;;;;5104636;27;20436;-73
2022/12/14 09:47:47;;;;;;;0.80;0.80;;;-1.70;99.90;;;;;;5099895;27;20475;-76
2022/12/14 09:50:20;;;;;;;1.33;1.30;;;-1.70;99.90;;;;;;5029221;28;20439;-72
2022/12/14 09:52:53;;;;;;;1.80;1.55;;;-1.70;99.90;;;;;;5039399;28;20433;-72
2022/12/14 09:55:25;;;;;;;1.95;1.27;;;-1.50;99.90;;;;;;5052715;28;20436;-72
2022/12/14 09:58:00;;;;;;;1.55;1.45;;;-1.60;99.90;;;;;;5042849;28;20515;-72
2022/12/14 10:00:37;;;;;;;1.45;1.35;;;-1.70;99.90;;;;;;5040609;28;20433;-71
2022/12/14 10:03:51;;;;;;;1.53;1.13;;;-1.70;99.90;;;;;;5041167;28;20520;-72
2022/12/14 10:06:38;;;;;;;7.15;1.58;;;-1.70;99.90;;;;;;5023166;28;20425;-72
2022/12/14 10:09:24;;;;;;;0.90;0.90;;;-1.70;99.90;;;;;;5044418;28;20822;-72
2022/12/14 10:12:16;;;;;;;1.30;1.20;;;-1.70;99.90;;;;;;5047628;28;20458;-71
2022/12/14 10:15:22;;;;;;;1.60;1.00;;;-1.60;99.90;;;;;;5044405;28;20428;-71
2022/12/14 10:18:07;;;;;;;1.60;1.50;;;-1.50;99.90;;;;;;5036469;28;20519;-77
2022/12/14 10:21:17;;;;;;;2.65;1.17;;;-1.30;99.90;;;;;;5041042;28;20594;-71
2022/12/14 10:24:04;;;;;;;1.52;1.42;;;-1.10;99.90;;;;;;5066116;27;20422;-72
2022/12/14 10:26:39;;;;;;;1.70;1.60;;;-0.90;99.90;;;;;;5101880;27;20518;-72
2022/12/14 10:29:36;;;;;;;1.80;1.60;;;-0.80;99.90;;;;;;5102918;27;20962;-72
2022/12/14 10:32:09;;;;;;;7.40;1.48;;;-0.80;99.90;;;;;;5080872;28;20508;-71
2022/12/14 10:34:39;;;;;;;2.58;1.60;;;-0.80;99.90;;;;;;5087522;28;20449;-71
2022/12/14 10:37:29;;;;;;;1.23;1.17;;;-0.90;99.90;;;;;;5110413;28;20432;-72
2022/12/14 10:40:12;;;;;;;1.50;1.20;;;-1.00;99.90;;;;;;5109327;27;20430;-71
2022/12/14 10:43:17;;;;;;;1.17;1.07;;;-1.00;99.90;;;;;;5107322;27;20489;-71
2022/12/14 10:46:07;;;;;;;2.15;1.98;;;-1.10;99.90;;;;;;5105147;27;20451;-72
2022/12/14 10:49:11;;;;;;;5.65;0.73;;;-1.10;99.90;;;;;;5104936;27;20418;-71
2022/12/14 10:51:49;;;;;;;1.95;1.75;;;-1.20;99.90;;;;;;5100896;27;20433;-71
2022/12/14 10:54:29;;;;;;;4.05;2.22;;;-1.20;99.90;;;;;;5111221;27;21038;-71
2022/12/14 10:56:55;;;;;;;2.55;1.25;;;-1.30;99.90;;;;;;5107551;27;20428;-71
2022/12/14 10:59:36;;;;;;;2.47;2.23;;;-1.40;99.90;;;;;;5105289;27;20989;-71
2022/12/14 11:02:26;;;;;;;3.45;2.47;;;-1.50;99.90;;;;;;5117069;27;20502;-71
2022/12/14 11:04:57;;;;;;;2.50;1.23;;;-1.50;99.90;;;;;;5106919;27;20838;-70
2022/12/14 11:07:31;;;;;;;0.80;0.80;;;-1.40;99.90;;;;;;5094811;27;20943;-71
2022/12/14 11:10:29;;;;;;;4.20;1.40;;;-1.60;99.90;;;;;;5121872;27;20416;-70
2022/12/14 11:13:11;;;;;;;4.00;1.67;;;-1.60;99.90;;;;;;5089338;28;20432;-71
2022/12/14 11:15:44;;;;;;;2.70;1.23;;;-1.60;99.90;;;;;;5114471;27;20516;-71
2022/12/14 11:18:11;;;;;;;1.00;0.90;;;-1.60;99.90;;;;;;5081149;28;20440;-77
2022/12/14 11:21:01;;;;;;;1.30;1.20;;;-1.50;99.90;;;;;;5106136;27;20426;-72
2022/12/14 11:23:37;;;;;;;3.28;2.53;;;-1.40;99.90;;;;;;5099769;27;20428;-72
2022/12/14 11:26:10;;;;;;;1.90;1.63;;;-1.20;99.90;;;;;;5088722;27;20420;-72
2022/12/14 11:29:01;;;;;;;1.15;1.15;;;-1.10;99.90;;;;;;5102036;28;20752;-73
2022/12/14 11:31:33;;;;;;;1.08;0.93;;;-1.10;99.90;;;;;;5110903;27;20422;-71
2022/12/14 11:34:02;;;;;;;2.03;1.23;;;-1.10;99.90;;;;;;5109653;27;20993;-71
2022/12/14 11:36:28;;;;;;;1.70;1.30;;;-1.10;99.90;;;;;;5092357;28;20432;-71
2022/12/14 11:39:02;;;;;;;1.08;0.98;;;-1.20;99.90;;;;;;5098715;27;20429;-71
2022/12/14 11:41:37;;;;;;;1.33;1.23;;;-1.20;99.90;;;;;;5085123;28;20449;-72
2022/12/14 11:44:26;;;;;;;2.50;0.80;;;-1.20;99.90;;;;;;5099507;27;20831;-70
2022/12/14 11:47:01;;;;;;;2.47;1.30;;;-1.40;99.90;;;;;;5105848;27;20422;-70
2022/12/14 11:49:33;;;;;;;1.67;1.20;;;-1.30;99.90;;;;;;5109101;27;20430;-70
2022/12/14 11:52:08;;;;;;;2.22;1.48;;;-1.50;99.90;;;;;;5114529;27;20855;-70
2022/12/14 11:54:43;;;;;;;1.00;0.90;;;-1.50;99.90;;;;;;5090059;28;21154;-70
2022/12/14 11:57:20;;;;;;;3.53;2.00;;;-1.50;99.90;;;;;;5094764;28;20432;-71
2022/12/14 11:59:52;;;;;;;1.05;1.05;;;-1.40;99.90;;;;;;5094889;28;21138;-71
2022/12/14 12:02:45;;;;;;;2.40;1.52;;;-1.40;99.90;;;;;;5106681;27;20420;-71
2022/12/14 12:05:21;;;;;;;2.35;1.77;;;-1.30;99.90;;;;;;5103269;27;20423;-71
2022/12/14 12:07:48;;;;;;;3.90;1.83;;;-1.20;99.90;;;;;;5090133;28;20461;-71
2022/12/14 12:10:24;;;;;;;1.10;0.98;;;-1.10;99.90;;;;;;5085642;28;20436;-71
2022/12/14 12:12:56;;;;;;;1.40;1.40;;;-1.00;99.90;;;;;;5099802;28;20428;-70
2022/12/14 12:15:35;;;;;;;2.15;1.48;;;-0.90;99.90;;;;;;5096725;28;20455;-70
2022/12/14 12:18:12;;;;;;;1.30;1.20;;;-1.00;99.90;;;;;;5090068;28;20437;-71
2022/12/14 12:21:08;;;;;;;4.65;1.67;;;-0.80;99.90;;;;;;5091909;28;20763;-71
2022/12/14 12:23:45;;;;;;;2.20;1.35;;;-0.50;99.90;;;;;;5106592;28;22186;-71
2022/12/14 12:26:27;;;;;;;1.60;1.00;;;-0.10;99.90;;;;;;5102819;28;20885;-69
2022/12/14 12:29:12;;;;;;;1.50;1.20;;;0.20;99.90;;;;;;5099578;28;21091;-68
2022/12/14 12:31:51;;;;;;;1.90;1.40;;;0.30;99.90;;;;;;5111087;28;20428;-69
2022/12/14 12:34:44;;;;;;;2.85;1.60;;;0.40;99.90;;;;;;5100093;28;20506;-69
2022/12/14 12:37:16;;;;;;;1.67;1.08;;;0.40;99.90;;;;;;5103763;28;20439;-69
2022/12/14 12:39:59;;;;;;;1.30;1.20;;;0.50;99.90;;;;;;5104175;28;20830;-69
2022/12/14 12:43:04;;;;;;;2.30;2.10;;;0.60;99.90;;;;;;5096022;28;20422;-68
2022/12/14 12:45:46;;;;;;;3.92;2.08;;;0.60;99.90;;;;;;5101291;27;20429;-69
2022/12/14 12:48:42;;;;;;;4.60;2.30;;;0.50;99.90;;;;;;5102699;27;20422;-69
2022/12/14 12:51:25;;;;;;;2.95;1.90;;;0.40;99.90;;;;;;5098744;27;20433;-70
2022/12/14 12:54:05;;;;;;;8.40;2.22;;;0.60;99.90;;;;;;5105150;27;20460;-70
2022/12/14 12:56:47;;;;;;;1.50;1.40;;;0.40;99.90;;;;;;5108514;27;20439;-70
2022/12/14 12:59:36;;;;;;;4.20;2.38;;;0.10;99.90;;;;;;5110252;27;20438;-69
2022/12/14 13:02:31;;;;;;;4.88;1.73;;;-0.10;99.90;;;;;;5101544;27;20877;-69
2022/12/14 13:05:04;;;;;;;1.98;1.88;;;-0.30;99.90;;;;;;5101533;27;20428;-70
2022/12/14 13:08:07;;;;;;;3.90;1.90;;;-0.40;99.90;;;;;;5109488;27;20424;-71
2022/12/14 13:10:39;;;;;;;2.20;1.23;;;-0.60;99.90;;;;;;5103630;27;20424;-70
2022/12/14 13:13:29;;;;;;;1.38;1.27;;;-0.70;99.90;;;;;;5110339;27;20501;-70
2022/12/14 13:16:15;;;;;;;1.70;1.60;;;-0.70;99.90;;;;;;5097719;27;20459;-70
2022/12/14 13:18:56;;;;;;;2.70;1.52;;;-0.70;99.90;;;;;;5098970;27;20437;-70
2022/12/14 13:21:47;;;;;;;1.52;0.90;;;-0.70;99.90;;;;;;5121825;27;20920;-69
2022/12/14 13:24:19;;;;;;;1.98;1.80;;;-0.70;99.90;;;;;;5104321;27;20469;-70
2022/12/14 13:27:07;;;;;;;2.20;1.40;;;-0.60;99.90;;;;;;5098882;27;20431;-70
2022/12/14 13:30:03;;;;;;;2.03;1.77;;;-0.60;99.90;;;;;;5104353;27;20428;-69
2022/12/14 13:32:39;;;;;;;1.40;1.40;;;-0.70;99.90;;;;;;5119527;27;21209;-69
2022/12/14 13:35:27;;;;;;;1.77;1.67;;;-0.60;99.90;;;;;;5102205;27;20437;-69
2022/12/14 13:38:09;;;;;;;4.45;2.35;;;-0.60;99.90;;;;;;5096315;27;20433;-69
2022/12/14 13:40:45;;;;;;;0.80;0.80;;;-0.80;99.90;;;;;;5089284;27;20430;-70
2022/12/14 13:43:40;;;;;;;2.07;1.80;;;-0.80;99.90;;;;;;5087079;28;21293;-70
2022/12/14 13:46:20;;;;;;;2.72;2.13;;;-0.80;99.90;;;;;;5098690;27;20421;-70